Time;durP1;ratioP1;P1;durP2;ratioP2;P2;SDS_P1;SDS_P2;PMS_P1;PMS_P2;Temp;Humidity;BMP_temperature;BMP_pressure;BME280_temperature;BME280_humidity;BME280_pressure;Samples;Min_cycle;Max_cycle;Signal;HPM_P1;HPM_P2
2023/01/02 00:02:13;;;;;;;0.57;0.57;;;;;;;10.00;81.84;100437.56;5109462;28;20197;-62
2023/01/02 00:04:40;;;;;;;1.70;1.27;;;;;;;10.13;81.05;100438.63;5109156;28;20221;-62
2023/01/02 00:07:07;;;;;;;0.70;0.70;;;;;;;10.12;81.20;100442.94;5109417;28;20211;-62
2023/01/02 00:09:34;;;;;;;1.10;0.70;;;;;;;10.17;80.58;100443.50;5109572;28;20221;-61
2023/01/02 00:12:00;;;;;;;1.40;1.10;;;;;;;10.02;81.02;100446.00;5111757;28;20208;-62
2023/01/02 00:14:27;;;;;;;2.40;1.17;;;;;;;9.98;81.22;100440.22;5112603;28;20244;-61
2023/01/02 00:16:56;;;;;;;1.47;1.13;;;;;;;9.98;81.24;100437.66;5113092;28;20199;-62
2023/01/02 00:19:22;;;;;;;0.80;0.70;;;;;;;9.84;81.72;100450.25;5113090;28;20224;-61
2023/01/02 00:21:49;;;;;;;3.40;1.00;;;;;;;9.81;82.43;100458.06;5112836;28;20204;-60
2023/01/02 00:24:16;;;;;;;3.33;1.40;;;;;;;9.71;82.51;100453.38;5112797;28;20228;-60
2023/01/02 00:26:43;;;;;;;0.83;0.73;;;;;;;9.85;82.29;100460.38;5112726;28;20209;-60
2023/01/02 00:29:10;;;;;;;1.00;0.70;;;;;;;9.91;81.98;100449.06;5112831;28;20595;-62
2023/01/02 00:31:37;;;;;;;0.57;0.57;;;;;;;9.75;82.57;100444.69;5112497;28;20197;-62
2023/01/02 00:34:05;;;;;;;1.03;0.97;;;;;;;9.72;83.19;100449.94;5112447;28;20233;-61
2023/01/02 00:36:32;;;;;;;1.27;1.17;;;;;;;9.80;83.04;100451.28;5112485;28;20726;-60
2023/01/02 00:38:59;;;;;;;1.37;1.03;;;;;;;9.68;83.21;100448.41;5112088;28;20217;-60
2023/01/02 00:41:26;;;;;;;1.87;1.03;;;;;;;9.61;84.01;100451.34;5112485;28;20200;-61
2023/01/02 00:43:52;;;;;;;1.00;0.73;;;;;;;9.64;84.13;100454.56;5112126;28;20224;-61
2023/01/02 00:46:19;;;;;;;1.80;1.17;;;;;;;9.55;84.03;100444.78;5112521;28;20205;-61
2023/01/02 00:48:46;;;;;;;2.30;1.10;;;;;;;9.44;84.34;100439.34;5112598;28;20209;-60
2023/01/02 00:51:14;;;;;;;0.53;0.53;;;;;;;9.42;84.79;100441.13;5112345;28;20197;-60
2023/01/02 00:53:41;;;;;;;1.87;0.87;;;;;;;9.40;84.36;100445.50;5112074;27;20225;-60
2023/01/02 00:56:08;;;;;;;1.03;0.90;;;;;;;9.25;85.20;100452.09;5112120;28;20216;-60
2023/01/02 00:58:35;;;;;;;2.83;1.17;;;;;;;9.29;85.74;100444.22;5112120;28;20221;-60
2023/01/02 01:01:02;;;;;;;0.93;0.77;;;;;;;9.26;86.07;100446.94;5112024;28;20669;-61
2023/01/02 01:03:29;;;;;;;1.17;0.90;;;;;;;9.46;85.17;100435.81;5112014;28;20221;-62
2023/01/02 01:05:56;;;;;;;1.57;0.90;;;;;;;9.23;85.51;100441.97;5112029;27;20223;-61
2023/01/02 01:08:24;;;;;;;0.97;0.77;;;;;;;9.14;86.27;100439.81;5111743;28;20228;-61
2023/01/02 01:10:51;;;;;;;0.60;0.60;;;;;;;9.20;85.95;100428.53;5112031;28;20201;-61
2023/01/02 01:13:18;;;;;;;0.63;0.63;;;;;;;9.31;86.34;100431.41;5111511;28;20693;-61
2023/01/02 01:15:46;;;;;;;1.10;0.80;;;;;;;9.43;86.15;100427.47;5111956;28;20201;-61
2023/01/02 01:18:12;;;;;;;1.53;0.93;;;;;;;9.48;85.76;100428.06;5111678;28;20223;-61
2023/01/02 01:20:39;;;;;;;3.73;1.53;;;;;;;9.64;85.17;100416.25;5111618;28;20584;-61
2023/01/02 01:23:06;;;;;;;0.93;0.50;;;;;;;9.79;84.25;100414.69;5110962;28;20193;-61
2023/01/02 01:25:36;;;;;;;1.03;0.90;;;;;;;9.84;84.12;100417.88;5111532;28;20193;-61
2023/01/02 01:28:04;;;;;;;1.40;0.77;;;;;;;9.84;84.12;100406.84;5111496;28;20442;-61
2023/01/02 01:30:30;;;;;;;1.47;0.70;;;;;;;9.91;83.41;100408.19;5111518;28;20205;-61
2023/01/02 01:32:58;;;;;;;1.33;0.63;;;;;;;10.01;83.31;100401.72;5111089;28;20197;-61
2023/01/02 01:35:25;;;;;;;0.80;0.63;;;;;;;9.97;82.72;100402.75;5111367;28;20197;-60
2023/01/02 01:37:51;;;;;;;1.80;1.20;;;;;;;9.85;83.39;100403.38;5111117;28;20197;-60
2023/01/02 01:40:18;;;;;;;0.50;0.50;;;;;;;9.78;83.34;100397.72;5111309;28;20204;-62
2023/01/02 01:42:46;;;;;;;0.83;0.70;;;;;;;9.69;83.56;100393.91;5111594;28;20202;-61
2023/01/02 01:45:14;;;;;;;0.83;0.67;;;;;;;9.70;83.82;100390.44;5111033;28;20220;-60
2023/01/02 01:47:43;;;;;;;1.60;1.03;;;;;;;9.67;83.63;100390.56;5111152;28;20696;-60
2023/01/02 01:50:15;;;;;;;0.80;0.80;;;;;;;9.51;83.79;100397.28;5110806;28;20213;-60
2023/01/02 01:52:45;;;;;;;1.00;0.60;;;;;;;9.48;84.62;100392.34;5111115;28;20205;-62
2023/01/02 01:55:17;;;;;;;1.03;0.80;;;;;;;9.51;84.36;100389.63;5110939;28;20229;-61
2023/01/02 01:57:49;;;;;;;1.30;1.20;;;;;;;9.48;84.55;100389.78;5111198;28;20200;-61
2023/01/02 02:00:17;;;;;;;0.57;0.57;;;;;;;9.43;84.70;100386.63;5110916;28;20253;-60
2023/01/02 02:02:48;;;;;;;0.67;0.67;;;;;;;9.41;84.74;100383.31;5110945;28;20197;-60
2023/01/02 02:05:17;;;;;;;1.13;0.53;;;;;;;9.37;84.95;100376.72;5111229;28;20202;-60
2023/01/02 02:07:50;;;;;;;1.20;0.77;;;;;;;9.32;85.08;100373.53;5110730;28;20209;-60
2023/01/02 02:10:17;;;;;;;1.30;0.83;;;;;;;9.28;85.53;100383.91;5110764;28;20193;-60
2023/01/02 02:12:44;;;;;;;0.57;0.57;;;;;;;9.19;85.55;100386.03;5110980;28;20219;-61
2023/01/02 02:15:18;;;;;;;0.63;0.57;;;;;;;9.11;86.05;100386.38;5110288;28;20237;-61
2023/01/02 02:17:56;;;;;;;1.00;0.73;;;;;;;9.14;86.70;100381.16;5110809;28;20204;-61
2023/01/02 02:20:38;;;;;;;0.70;0.70;;;;;;;9.24;86.16;100387.47;5110387;28;20196;-60
2023/01/02 02:23:57;;;;;;;1.17;0.80;;;;;;;9.33;85.91;100385.41;5110186;28;20202;-60
2023/01/02 02:26:48;;;;;;;0.70;0.50;;;;;;;9.41;84.70;100389.25;5110508;28;20201;-61
2023/01/02 02:29:56;;;;;;;0.97;0.90;;;;;;;9.34;85.05;100392.16;5110547;28;20217;-62
2023/01/02 02:32:34;;;;;;;1.23;0.73;;;;;;;9.15;85.41;100381.97;5110033;28;20201;-61
2023/01/02 02:35:10;;;;;;;1.03;0.93;;;;;;;9.04;86.89;100379.88;5109346;28;20239;-61
2023/01/02 02:37:43;;;;;;;0.40;0.40;;;;;;;9.09;86.80;100379.69;5110123;28;20195;-61
2023/01/02 02:40:19;;;;;;;1.13;1.03;;;;;;;9.13;86.50;100379.47;5110001;28;20225;-61
2023/01/02 02:42:55;;;;;;;0.93;0.77;;;;;;;9.05;86.36;100384.94;5110246;28;20203;-61
2023/01/02 02:45:30;;;;;;;0.50;0.50;;;;;;;9.02;85.89;100377.44;5109933;28;20193;-60
2023/01/02 02:48:04;;;;;;;1.30;0.77;;;;;;;9.01;86.06;100375.75;5110121;28;20196;-60
2023/01/02 02:50:39;;;;;;;1.80;0.77;;;;;;;8.80;86.40;100372.44;5109901;28;20668;-60
2023/01/02 02:53:13;;;;;;;1.17;0.90;;;;;;;8.68;88.19;100375.53;5110248;28;20212;-60
2023/01/02 02:55:44;;;;;;;0.47;0.43;;;;;;;8.60;89.04;100367.38;5109949;28;20241;-59
2023/01/02 02:58:13;;;;;;;1.50;0.93;;;;;;;8.63;89.11;100364.72;5109757;28;20217;-61
2023/01/02 03:00:40;;;;;;;0.97;0.93;;;;;;;8.60;89.24;100363.13;5109717;28;20208;-61
2023/01/02 03:03:17;;;;;;;1.23;0.87;;;;;;;8.61;89.45;100369.06;5109435;28;20695;-61
2023/01/02 03:06:07;;;;;;;1.50;0.93;;;;;;;8.60;89.49;100368.22;5110021;28;20227;-61
2023/01/02 03:08:42;;;;;;;2.47;1.30;;;;;;;8.61;89.08;100367.34;5109979;28;20221;-61
2023/01/02 03:11:09;;;;;;;2.47;0.53;;;;;;;8.60;88.87;100367.38;5109870;28;20208;-61
2023/01/02 03:13:42;;;;;;;1.33;0.80;;;;;;;8.59;88.86;100369.13;5109705;28;20223;-61
2023/01/02 03:16:17;;;;;;;4.63;0.90;;;;;;;8.54;88.59;100371.03;5109728;28;20209;-61
2023/01/02 03:18:53;;;;;;;1.07;0.97;;;;;;;8.57;89.07;100370.06;5110003;28;20594;-60
2023/01/02 03:21:27;;;;;;;1.17;0.73;;;;;;;8.60;88.95;100372.50;5110051;28;20200;-60
2023/01/02 03:23:57;;;;;;;0.37;0.37;;;;;;;8.59;88.91;100381.03;5109763;28;20689;-60
2023/01/02 03:26:29;;;;;;;0.30;0.30;;;;;;;8.51;88.46;100380.53;5109699;28;20201;-60
2023/01/02 03:29:01;;;;;;;0.50;0.50;;;;;;;8.21;88.45;100383.47;5109748;28;20681;-60
2023/01/02 03:31:32;;;;;;;0.93;0.60;;;;;;;8.02;88.41;100382.56;5109731;28;20205;-59
2023/01/02 03:34:07;;;;;;;0.60;0.50;;;;;;;7.74;87.94;100386.22;5109585;28;20236;-60
2023/01/02 03:36:37;;;;;;;0.90;0.60;;;;;;;7.45;88.39;100387.38;5109630;28;20194;-59
2023/01/02 03:39:09;;;;;;;0.97;0.97;;;;;;;6.98;88.88;100393.34;5109770;28;20217;-61
2023/01/02 03:41:41;;;;;;;1.33;1.00;;;;;;;6.54;90.34;100388.13;5109774;28;20209;-59
2023/01/02 03:44:12;;;;;;;2.07;0.83;;;;;;;6.30;91.55;100394.03;5109259;28;20647;-59
2023/01/02 03:46:46;;;;;;;1.30;1.07;;;;;;;6.08;92.87;100399.84;5113179;28;20201;-59
2023/01/02 03:49:20;;;;;;;1.07;0.83;;;;;;;5.90;94.20;100395.28;5113306;28;20220;-59
2023/01/02 03:51:47;;;;;;;1.50;0.90;;;;;;;5.77;95.38;100394.03;5113451;27;20222;-59
2023/01/02 03:54:15;;;;;;;1.87;0.90;;;;;;;5.67;96.73;100399.41;5113139;28;20240;-61
2023/01/02 03:56:53;;;;;;;1.10;1.00;;;;;;;5.59;97.78;100398.81;5113458;28;20197;-61
2023/01/02 03:59:30;;;;;;;1.67;1.47;;;;;;;5.54;99.02;100408.25;5113232;28;20220;-61
2023/01/02 04:02:04;;;;;;;2.73;1.63;;;;;;;5.52;100.00;100409.19;5113140;28;20197;-59
2023/01/02 04:04:39;;;;;;;2.13;0.93;;;;;;;5.47;100.00;100411.88;5112826;28;20217;-59
2023/01/02 04:07:12;;;;;;;1.77;1.53;;;;;;;5.42;100.00;100409.47;5113041;28;20205;-59
2023/01/02 04:09:40;;;;;;;1.50;1.33;;;;;;;5.39;100.00;100418.88;5113328;28;20213;-59
2023/01/02 04:12:11;;;;;;;1.23;1.13;;;;;;;5.35;100.00;100413.06;5112837;28;20201;-59
2023/01/02 04:14:42;;;;;;;1.60;1.13;;;;;;;5.37;100.00;100410.47;5112605;28;20228;-59
2023/01/02 04:17:10;;;;;;;2.00;1.13;;;;;;;5.37;100.00;100415.53;5113092;28;20197;-59
2023/01/02 04:19:43;;;;;;;1.47;1.20;;;;;;;5.43;100.00;100412.81;5112621;27;20220;-59
2023/01/02 04:22:16;;;;;;;0.60;0.60;;;;;;;5.41;100.00;100412.03;5113038;28;20201;-59
2023/01/02 04:24:46;;;;;;;3.10;1.10;;;;;;;5.40;100.00;100415.44;5113081;28;20217;-61
2023/01/02 04:27:18;;;;;;;1.27;1.10;;;;;;;5.47;100.00;100411.88;5113030;28;20193;-61
2023/01/02 04:29:45;;;;;;;0.97;0.87;;;;;;;5.44;100.00;100406.88;5112790;28;20229;-61
2023/01/02 04:32:19;;;;;;;0.50;0.50;;;;;;;5.51;100.00;100408.34;5112614;28;20209;-61
2023/01/02 04:34:48;;;;;;;1.07;1.00;;;;;;;5.50;100.00;100411.78;5112566;28;20229;-59
2023/01/02 04:37:33;;;;;;;0.50;0.50;;;;;;;5.53;100.00;100411.69;5112731;28;20242;-59
2023/01/02 04:40:06;;;;;;;1.87;0.80;;;;;;;5.58;100.00;100417.41;5112266;28;20810;-60
2023/01/02 04:42:32;;;;;;;0.97;0.70;;;;;;;5.58;100.00;100412.34;5112387;28;20219;-61
2023/01/02 04:44:59;;;;;;;1.80;1.03;;;;;;;5.68;100.00;100402.78;5112208;28;20251;-59
2023/01/02 04:47:26;;;;;;;1.73;1.10;;;;;;;5.80;100.00;100404.09;5111970;28;20703;-59
2023/01/02 04:49:54;;;;;;;1.10;0.70;;;;;;;5.86;100.00;100408.97;5112077;28;20609;-59
2023/01/02 04:52:21;;;;;;;0.80;0.70;;;;;;;5.91;100.00;100409.66;5112151;27;20197;-59
2023/01/02 04:54:48;;;;;;;0.93;0.90;;;;;;;5.98;100.00;100407.78;5111980;28;20247;-61
2023/01/02 04:57:15;;;;;;;1.40;1.07;;;;;;;6.02;100.00;100411.88;5111342;28;20599;-61
2023/01/02 04:59:42;;;;;;;0.87;0.87;;;;;;;6.08;100.00;100410.00;5111763;28;20217;-59
2023/01/02 05:02:08;;;;;;;0.40;0.40;;;;;;;6.17;100.00;100408.00;5112204;28;20863;-59
2023/01/02 05:04:35;;;;;;;1.20;1.10;;;;;;;6.19;100.00;100421.50;5112183;28;20226;-61
2023/01/02 05:07:04;;;;;;;4.90;1.00;;;;;;;6.23;100.00;100410.38;5111876;28;20205;-59
2023/01/02 05:09:31;;;;;;;1.57;0.97;;;;;;;6.31;100.00;100413.47;5111720;28;20228;-59
2023/01/02 05:11:58;;;;;;;0.73;0.73;;;;;;;6.39;100.00;100420.84;5111911;28;20201;-61
2023/01/02 05:14:25;;;;;;;1.70;0.90;;;;;;;6.39;99.92;100418.28;5111699;28;20602;-61
2023/01/02 05:16:52;;;;;;;0.67;0.67;;;;;;;6.42;99.81;100416.47;5111781;28;20201;-61
2023/01/02 05:19:19;;;;;;;0.60;0.60;;;;;;;6.46;99.59;100415.50;5111907;28;20240;-59
2023/01/02 05:24:31;;;;;;;2.07;0.60;;;;;;;6.53;99.36;100422.03;5111996;28;20319;-61
2023/01/02 05:26:58;;;;;;;1.97;0.70;;;;;;;6.66;99.11;100426.69;5111650;28;20220;-61
2023/01/02 05:29:25;;;;;;;0.53;0.53;;;;;;;6.73;98.67;100423.06;5111399;28;20213;-59
2023/01/02 05:31:52;;;;;;;0.70;0.60;;;;;;;6.80;98.22;100421.94;5111573;28;20306;-59
2023/01/02 05:34:19;;;;;;;0.40;0.40;;;;;;;6.90;97.77;100430.09;5111618;28;20220;-59
2023/01/02 05:36:46;;;;;;;0.63;0.63;;;;;;;6.99;97.30;100439.94;5111664;28;20197;-59
2023/01/02 05:39:14;;;;;;;0.53;0.53;;;;;;;7.00;96.74;100427.16;5110983;28;20627;-59
2023/01/02 05:41:42;;;;;;;1.00;0.40;;;;;;;6.98;96.45;100433.16;5111313;28;20205;-59
2023/01/02 05:44:10;;;;;;;0.93;0.67;;;;;;;6.97;96.57;100431.53;5111259;28;20399;-59
2023/01/02 05:46:38;;;;;;;0.40;0.40;;;;;;;6.98;96.49;100428.94;5111085;28;20225;-59
2023/01/02 05:49:05;;;;;;;0.17;0.10;;;;;;;7.00;96.24;100427.16;5111191;28;20225;-61
2023/01/02 05:51:33;;;;;;;0.40;0.40;;;;;;;6.96;96.36;100430.69;5111249;28;20200;-61
2023/01/02 05:54:00;;;;;;;0.50;0.50;;;;;;;6.89;96.27;100433.50;5111160;28;20218;-61
2023/01/02 05:56:28;;;;;;;0.23;0.23;;;;;;;6.87;96.55;100431.03;5110822;28;20236;-61
2023/01/02 05:58:57;;;;;;;0.53;0.53;;;;;;;6.78;96.54;100433.91;5110731;28;20217;-61
2023/01/02 06:01:26;;;;;;;0.30;0.30;;;;;;;6.70;96.78;100433.34;5110762;28;20204;-61
2023/01/02 06:03:55;;;;;;;0.40;0.40;;;;;;;6.63;97.08;100434.41;5110379;28;20221;-61
2023/01/02 06:06:24;;;;;;;0.50;0.50;;;;;;;6.55;97.52;100435.50;5110824;28;20197;-61
2023/01/02 06:08:51;;;;;;;1.53;0.57;;;;;;;6.48;97.91;100443.38;5110856;28;20696;-61
2023/01/02 06:11:19;;;;;;;1.33;0.80;;;;;;;6.44;98.13;100447.75;5110867;28;20220;-59
2023/01/02 06:13:45;;;;;;;0.73;0.60;;;;;;;6.43;98.45;100446.09;5110584;28;20274;-59
2023/01/02 06:16:14;;;;;;;0.47;0.47;;;;;;;6.39;98.57;100452.13;5110497;28;20224;-59
2023/01/02 06:18:41;;;;;;;1.67;0.73;;;;;;;6.43;99.03;100450.31;5110479;28;20225;-59
2023/01/02 06:21:10;;;;;;;0.33;0.33;;;;;;;6.41;99.00;100463.09;5110405;28;20197;-61
2023/01/02 06:23:37;;;;;;;1.57;0.60;;;;;;;6.40;99.05;100455.50;5110593;28;20213;-59
2023/01/02 06:26:05;;;;;;;1.27;0.83;;;;;;;6.39;98.99;100454.69;5110263;28;20201;-59
2023/01/02 06:28:32;;;;;;;0.50;0.50;;;;;;;6.49;99.28;100450.97;5110154;28;20838;-61
2023/01/02 06:31:00;;;;;;;0.57;0.57;;;;;;;6.56;98.87;100457.50;5110221;28;20193;-61
2023/01/02 06:33:29;;;;;;;0.53;0.50;;;;;;;6.57;98.71;100454.09;5110226;28;20270;-61
2023/01/02 06:36:00;;;;;;;0.80;0.80;;;;;;;6.59;98.77;100451.47;5110120;28;20221;-61
2023/01/02 06:38:28;;;;;;;1.00;0.93;;;;;;;6.63;98.59;100452.19;5110178;28;20221;-59
2023/01/02 06:40:55;;;;;;;0.40;0.30;;;;;;;6.64;98.49;100453.88;5110228;28;20198;-59
2023/01/02 06:43:22;;;;;;;1.70;0.40;;;;;;;6.70;98.78;100453.66;5109926;28;20224;-59
2023/01/02 06:45:49;;;;;;;0.43;0.43;;;;;;;6.77;98.66;100460.19;5109904;28;20279;-59
2023/01/02 06:48:18;;;;;;;1.00;1.00;;;;;;;6.85;98.55;100460.75;5110069;28;20217;-59
2023/01/02 06:50:46;;;;;;;0.77;0.77;;;;;;;6.90;98.24;100458.88;5110345;28;20212;-59
2023/01/02 06:53:13;;;;;;;0.63;0.63;;;;;;;7.02;97.97;100461.00;5110306;28;20212;-60
2023/01/02 06:55:40;;;;;;;1.67;0.70;;;;;;;7.11;97.90;100461.56;5110114;28;20225;-61
2023/01/02 06:58:07;;;;;;;0.60;0.60;;;;;;;7.22;97.21;100462.00;5110204;28;20197;-61
2023/01/02 07:00:34;;;;;;;0.30;0.30;;;;;;;7.35;96.35;100462.38;5109888;28;20197;-61
2023/01/02 07:03:01;;;;;;;0.90;0.73;;;;;;;7.49;95.49;100466.06;5109843;28;20649;-61
2023/01/02 07:05:27;;;;;;;1.13;0.80;;;;;;;7.68;94.50;100466.22;5109640;28;20201;-61
2023/01/02 07:07:56;;;;;;;0.60;0.60;;;;;;;7.90;93.66;100465.38;5109628;28;20193;-61
2023/01/02 07:10:23;;;;;;;2.27;0.90;;;;;;;8.05;92.96;100458.84;5109821;28;20208;-61
2023/01/02 07:12:49;;;;;;;1.30;1.20;;;;;;;8.23;91.93;100462.38;5109939;28;20193;-61
2023/01/02 07:15:16;;;;;;;1.13;1.03;;;;;;;8.46;90.93;100464.00;5109893;28;20231;-61
2023/01/02 07:17:43;;;;;;;1.23;1.13;;;;;;;8.67;89.95;100463.13;5109875;28;20208;-59
2023/01/02 07:20:11;;;;;;;1.20;0.90;;;;;;;8.76;88.95;100469.56;5110978;28;20209;-59
2023/01/02 07:22:38;;;;;;;1.97;1.43;;;;;;;8.99;88.74;100476.22;5114066;28;20201;-61
2023/01/02 07:25:07;;;;;;;0.60;0.60;;;;;;;9.23;87.71;100475.13;5113606;28;20231;-62
2023/01/02 07:27:35;;;;;;;1.17;0.87;;;;;;;9.33;86.93;100478.09;5113781;28;20198;-59
2023/01/02 07:30:01;;;;;;;1.53;0.90;;;;;;;9.40;86.39;100483.78;5113623;28;20239;-59
2023/01/02 07:32:28;;;;;;;1.43;1.07;;;;;;;9.42;86.17;100464.09;5113605;28;20201;-61
2023/01/02 07:34:55;;;;;;;1.90;1.30;;;;;;;9.62;85.97;100479.34;5113594;28;20217;-61
2023/01/02 07:37:22;;;;;;;2.83;1.13;;;;;;;9.78;85.19;100479.47;5113634;28;20200;-60
2023/01/02 07:39:49;;;;;;;1.70;1.10;;;;;;;9.99;84.61;100480.19;5113399;28;20213;-59
2023/01/02 07:42:17;;;;;;;1.63;1.27;;;;;;;10.14;83.77;100466.66;5113690;28;20201;-59
2023/01/02 07:44:44;;;;;;;0.70;0.70;;;;;;;10.25;82.85;100467.88;5113777;28;20240;-61
2023/01/02 07:47:10;;;;;;;1.43;1.27;;;;;;;10.35;83.25;100469.09;5113528;28;20688;-61
2023/01/02 07:49:37;;;;;;;1.07;0.97;;;;;;;10.44;82.18;100468.66;5113696;28;20770;-61
2023/01/02 07:52:08;;;;;;;1.57;1.47;;;;;;;10.47;81.65;100472.78;5113293;28;20684;-62
2023/01/02 07:54:35;;;;;;;1.23;1.13;;;;;;;10.42;81.88;100470.47;5113009;28;20225;-61
2023/01/02 07:57:02;;;;;;;2.47;1.23;;;;;;;10.49;81.71;100469.25;5113595;28;20233;-61
2023/01/02 07:59:30;;;;;;;1.97;1.67;;;;;;;10.69;81.59;100467.44;5112881;28;20236;-61
2023/01/02 08:01:57;;;;;;;1.53;1.43;;;;;;;10.80;80.98;100465.97;5113158;28;20199;-61
2023/01/02 08:04:24;;;;;;;1.20;1.07;;;;;;;10.99;79.76;100476.09;5113182;28;20232;-60
2023/01/02 08:06:50;;;;;;;1.53;1.13;;;;;;;11.23;79.30;100473.19;5113247;28;20205;-59
2023/01/02 08:09:17;;;;;;;2.87;1.37;;;;;;;11.46;78.21;100485.59;5113443;28;20717;-59
2023/01/02 08:11:44;;;;;;;2.77;1.60;;;;;;;11.64;77.47;100485.50;5112975;28;20205;-60
2023/01/02 08:14:11;;;;;;;1.90;1.50;;;;;;;11.95;75.89;100482.09;5112900;28;20398;-61
2023/01/02 08:16:39;;;;;;;1.37;1.20;;;;;;;12.17;74.85;100482.56;5112987;28;20259;-62
2023/01/02 08:19:06;;;;;;;1.47;1.37;;;;;;;12.37;73.42;100489.13;5112980;28;20213;-61
2023/01/02 08:21:33;;;;;;;1.60;1.50;;;;;;;12.54;71.99;100489.91;5113112;28;20212;-62
2023/01/02 08:24:00;;;;;;;2.87;2.00;;;;;;;12.57;70.86;100492.28;5112649;28;20213;-61
2023/01/02 08:26:26;;;;;;;1.93;1.23;;;;;;;12.69;71.09;100494.97;5112566;28;20685;-61
2023/01/02 08:28:53;;;;;;;3.73;1.77;;;;;;;12.93;70.87;100486.72;5112591;28;20221;-62
2023/01/02 08:31:21;;;;;;;2.53;1.70;;;;;;;13.16;68.32;100495.63;5111350;28;20197;-60
2023/01/02 08:33:49;;;;;;;1.87;1.50;;;;;;;13.21;67.40;100485.91;5112696;28;20214;-59
2023/01/02 08:36:16;;;;;;;3.20;1.60;;;;;;;13.28;67.94;100494.91;5112837;28;20237;-62
2023/01/02 08:38:43;;;;;;;2.10;1.57;;;;;;;13.68;67.21;100487.31;5112321;28;20215;-62
2023/01/02 08:41:10;;;;;;;3.20;1.80;;;;;;;14.15;65.71;100480.88;5112412;28;20464;-63
2023/01/02 08:43:37;;;;;;;4.70;1.70;;;;;;;14.35;63.16;100486.47;5112098;28;20236;-62
2023/01/02 08:46:05;;;;;;;2.07;1.43;;;;;;;14.34;63.14;100477.09;5112303;28;20212;-60
2023/01/02 08:48:32;;;;;;;2.43;1.30;;;;;;;14.46;62.06;100482.28;5111912;28;20605;-60
2023/01/02 08:51:01;;;;;;;2.13;1.67;;;;;;;14.51;62.10;100474.22;5112319;28;20206;-60
2023/01/02 08:53:28;;;;;;;2.93;1.50;;;;;;;14.49;61.65;100471.78;5111855;28;20217;-62
2023/01/02 08:55:55;;;;;;;3.47;1.77;;;;;;;14.48;62.33;100469.28;5112058;28;20505;-62
2023/01/02 08:58:22;;;;;;;7.43;2.00;;;;;;;14.48;62.42;100470.09;5112333;28;20224;-60
2023/01/02 09:00:52;;;;;;;2.30;1.80;;;;;;;14.69;62.73;100462.75;5112304;28;20247;-60
2023/01/02 09:03:19;;;;;;;2.47;1.20;;;;;;;14.65;62.24;100458.72;5112073;28;20218;-62
2023/01/02 09:05:45;;;;;;;1.83;1.47;;;;;;;14.76;61.83;100462.34;5111941;28;20696;-62
2023/01/02 09:08:14;;;;;;;1.73;1.40;;;;;;;14.84;60.96;100450.59;5111756;28;20221;-60
2023/01/02 09:10:41;;;;;;;2.87;2.03;;;;;;;14.71;62.27;100449.75;5111893;28;20209;-60
2023/01/02 09:13:07;;;;;;;2.77;1.63;;;;;;;14.55;61.72;100446.59;5111738;28;20194;-60
2023/01/02 09:15:34;;;;;;;1.90;1.40;;;;;;;14.63;61.40;100446.88;5111819;28;20235;-62
2023/01/02 09:18:01;;;;;;;1.77;1.30;;;;;;;14.60;62.70;100441.94;5111446;28;20213;-62
2023/01/02 09:20:28;;;;;;;2.23;1.47;;;;;;;14.58;62.50;100439.47;5111892;28;20200;-62
2023/01/02 09:22:55;;;;;;;1.30;1.10;;;;;;;14.73;63.80;100431.66;5111345;28;20205;-62
2023/01/02 09:25:23;;;;;;;2.37;1.43;;;;;;;15.06;61.81;100429.31;5111738;28;20202;-63
2023/01/02 09:27:51;;;;;;;2.80;1.50;;;;;;;15.49;60.67;100421.16;5111464;28;20193;-62
2023/01/02 09:30:17;;;;;;;3.10;1.70;;;;;;;15.46;60.07;100421.38;5111933;27;20202;-63
2023/01/02 09:32:44;;;;;;;1.80;1.13;;;;;;;15.96;60.58;100421.25;5111566;28;20193;-60
2023/01/02 09:35:11;;;;;;;3.20;1.57;;;;;;;16.32;58.53;100415.13;5111371;28;20223;-60
2023/01/02 09:37:38;;;;;;;3.30;1.90;;;;;;;16.67;57.52;100414.22;5111236;28;20722;-63
2023/01/02 09:40:06;;;;;;;2.67;1.70;;;;;;;16.92;57.03;100416.56;5111155;28;20228;-63
2023/01/02 09:42:34;;;;;;;2.97;1.43;;;;;;;17.20;54.88;100417.00;5111044;28;20198;-62
2023/01/02 09:45:04;;;;;;;1.83;1.30;;;;;;;17.31;55.06;100405.84;5110976;28;20244;-60
2023/01/02 09:47:32;;;;;;;2.30;1.70;;;;;;;17.57;53.80;100408.91;5111322;28;20213;-60
2023/01/02 09:50:03;;;;;;;3.80;1.70;;;;;;;17.85;54.38;100392.00;5111176;28;20245;-60
2023/01/02 09:52:33;;;;;;;3.33;1.63;;;;;;;18.33;53.00;100396.66;5111036;28;20260;-60
2023/01/02 09:55:00;;;;;;;3.07;1.83;;;;;;;18.64;52.27;100389.69;5110727;28;20217;-60
2023/01/02 09:57:40;;;;;;;2.07;1.60;;;;;;;19.02;50.14;100383.00;5110790;28;20626;-60
2023/01/02 10:00:14;;;;;;;3.87;1.70;;;;;;;18.97;50.57;100388.63;5110814;28;20628;-60
2023/01/02 10:02:54;;;;;;;3.23;1.90;;;;;;;18.81;51.57;100380.50;5110857;28;20589;-62
2023/01/02 10:05:36;;;;;;;1.67;1.43;;;;;;;19.22;50.06;100376.91;5110784;28;20202;-63
2023/01/02 10:08:11;;;;;;;3.90;2.20;;;;;;;19.59;50.09;100371.06;5110977;28;20214;-63
2023/01/02 10:10:41;;;;;;;2.70;2.07;;;;;;;19.37;49.33;100371.31;5110746;27;20206;-63
2023/01/02 10:13:17;;;;;;;3.37;2.17;;;;;;;19.75;48.54;100369.69;5110477;28;20198;-63
2023/01/02 10:15:47;;;;;;;3.50;2.00;;;;;;;20.03;47.47;100374.03;5110628;28;20590;-64
2023/01/02 10:18:22;;;;;;;2.73;1.90;;;;;;;20.06;47.57;100373.75;5110616;28;20708;-63
2023/01/02 10:20:56;;;;;;;3.57;2.33;;;;;;;19.62;48.46;100373.38;5110548;28;20283;-63
2023/01/02 10:23:25;;;;;;;4.20;2.10;;;;;;;19.92;48.77;100371.59;5110528;28;20231;-63
2023/01/02 10:25:57;;;;;;;3.83;2.30;;;;;;;20.29;47.70;100373.41;5110691;28;20209;-63
2023/01/02 10:28:33;;;;;;;3.67;2.20;;;;;;;19.93;48.54;100365.44;5110504;28;20221;-60
2023/01/02 10:31:05;;;;;;;3.87;2.20;;;;;;;19.98;49.41;100362.41;5110391;28;20209;-61
2023/01/02 10:33:42;;;;;;;3.37;2.03;;;;;;;20.29;48.42;100363.03;5110297;28;20690;-61
2023/01/02 10:36:20;;;;;;;5.33;2.07;;;;;;;20.18;49.26;100366.59;5110403;28;20260;-61
2023/01/02 10:38:47;;;;;;;3.30;2.07;;;;;;;20.41;47.45;100361.06;5110003;28;20246;-63
2023/01/02 10:41:14;;;;;;;3.00;2.23;;;;;;;19.93;47.48;100360.25;5110301;28;20213;-61
2023/01/02 10:43:44;;;;;;;3.77;2.03;;;;;;;19.55;48.56;100359.31;5110018;28;20239;-61
2023/01/02 10:46:11;;;;;;;3.10;1.90;;;;;;;19.77;48.96;100357.41;5110307;28;20203;-61
2023/01/02 10:48:38;;;;;;;3.90;2.37;;;;;;;20.15;48.86;100345.28;5110027;28;20692;-61
2023/01/02 10:51:11;;;;;;;3.50;2.40;;;;;;;20.22;48.56;100347.19;5109983;28;20204;-61
2023/01/02 10:53:38;;;;;;;2.80;2.10;;;;;;;20.58;46.55;100342.16;5109684;28;20223;-61
2023/01/02 10:56:08;;;;;;;3.27;2.40;;;;;;;20.83;46.83;100348.44;5109435;28;20211;-61
2023/01/02 10:58:35;;;;;;;3.40;2.00;;;;;;;20.89;46.37;100344.44;5109927;28;20250;-63
2023/01/02 11:01:13;;;;;;;4.60;2.63;;;;;;;20.75;45.76;100337.94;5110030;28;20205;-63
2023/01/02 11:03:40;;;;;;;4.53;2.63;;;;;;;20.79;45.56;100344.47;5110047;28;20236;-63
2023/01/02 11:06:19;;;;;;;4.20;2.63;;;;;;;20.68;45.67;100336.88;5110022;28;20586;-63
2023/01/02 11:08:57;;;;;;;3.07;2.30;;;;;;;21.03;46.05;100334.34;5109806;28;20265;-63
2023/01/02 11:11:25;;;;;;;3.17;2.30;;;;;;;20.06;46.99;100326.19;5109976;28;20255;-63
2023/01/02 11:13:54;;;;;;;5.50;2.43;;;;;;;20.47;46.45;100329.31;5109814;28;20668;-63
2023/01/02 11:16:24;;;;;;;4.20;2.70;;;;;;;20.76;46.68;100329.19;5109975;28;20231;-63
2023/01/02 11:18:53;;;;;;;3.90;2.27;;;;;;;21.05;45.93;100323.78;5109881;28;20227;-63
2023/01/02 11:21:28;;;;;;;3.03;2.33;;;;;;;21.11;45.21;100322.38;5109844;28;20201;-61
2023/01/02 11:23:59;;;;;;;4.53;2.60;;;;;;;21.05;45.63;100317.78;5109542;28;20227;-61
2023/01/02 11:26:27;;;;;;;3.20;2.20;;;;;;;21.11;45.25;100312.78;5109917;28;20208;-61
2023/01/02 11:28:56;;;;;;;2.75;2.00;;;;;;;21.22;44.39;100314.34;5109865;28;20223;-61
2023/01/02 11:31:24;;;;;;;4.20;2.37;;;;;;;21.06;46.24;100303.78;5109567;28;20211;-61
2023/01/02 11:33:51;;;;;;;3.93;2.43;;;;;;;20.71;45.98;100315.78;5109404;28;20226;-63
2023/01/02 11:36:19;;;;;;;4.03;2.30;;;;;;;20.72;46.16;100301.88;5109788;28;20224;-63
2023/01/02 11:38:48;;;;;;;4.53;2.63;;;;;;;20.71;47.78;100298.44;5109429;28;20311;-61
2023/01/02 11:43:47;;;;;;;3.30;2.40;;;;;;;20.73;45.84;100293.09;5109695;28;20205;-61
2023/01/02 11:44:20;;;;;;;4.77;2.77;;;;;;;20.74;46.04;100289.50;5109667;28;20228;-61